Ana Sayfa
METAR-TAF:

METAR-TAF

Havaalanları :

Gerbangkertosusila, Endonezya

Enlem: 07-22-47S, Boylam: 112-47-13E, yükseklik: 3 m

METAR: eksik

Saat: 23:11 (16:11 UTC)

Tahmin

Rapor saat 11:00 UTC de 5 saat ve 11 dakika önce yapıldı.
Ayın 21'si saat 12 UTC'den ayın 22'si saat 12 UTC'ye kadar geçerli Tahmin
Rüzgar doğudan 10 kt
Görüş mesafesi: 8000 m
2000 ft yükseklikte az bulutlu
Dönüşüyor
ayın 21'si saat 17 UTC'den ayın 21'si saat 19 UTC'ye kadar
Rüzgar batıdan 4 kt
Görüş mesafesi: 4000 m
Toz Pusu
Dönüşüyor
ayın 22'si saat 00 UTC'den ayın 22'si saat 02 UTC'ye kadar
Rüzgar doğu/güneydoğudan 12 kt
Görüş mesafesi 10 km veya daha fazla

TAF: WARR 211100Z 2112/2212 10010KT 8000 FEW020 BECMG 2117/2119 26004KT 4000 HZ BECMG 2200/2202 11012KT 9999 NSW

4.000'den fazla havaalanı için hava durumu gözlemleri ve tahminleri (METAR ve TAF raporları).

Kullanılabilir istasyonlar harita üzerinde sarı ve kırmızı noktalarla gösterilir.

İstasyonun adını görmek için fareyi noktanın üzerinde gezdirin.

Sonrasında hava gözlem ve tahminlerini görmek için tıklayın.

Haritayı değiştirmek için: yaklaştırmak için siyah artı işaretli yeşil düğmeye ve uzaklaştırmak için de eksi işaretli düğmeye hızla tıklayın; bitişik haritalar için yeşil okları kullanın.


METAR-TAF: